createdAt,value
2023-05-22T00:05:01.843Z,3.86
2023-05-22T00:10:09.158Z,4.06
2023-05-22T00:15:16.431Z,4.01
2023-05-22T00:20:23.650Z,4.05
2023-05-22T00:25:31.036Z,3.72
2023-05-22T00:30:38.751Z,3.55
2023-05-22T00:35:45.209Z,3.90
2023-05-22T00:40:52.547Z,3.86
2023-05-22T00:46:00.034Z,4.42
2023-05-22T00:51:07.272Z,4.03
2023-05-22T00:56:14.834Z,4.20
2023-05-22T01:01:22.188Z,4.04
2023-05-22T01:06:29.658Z,4.12
2023-05-22T01:11:37.023Z,4.19
2023-05-22T01:16:44.547Z,4.46
2023-05-22T01:21:51.793Z,4.29
2023-05-22T01:26:59.350Z,4.14
2023-05-22T01:32:06.694Z,4.55
2023-05-22T01:37:14.159Z,4.31
2023-05-22T01:42:21.538Z,4.40
2023-05-22T01:47:29.089Z,4.69
2023-05-22T01:52:36.244Z,4.36
2023-05-22T01:57:43.641Z,4.73
2023-05-22T02:02:50.517Z,4.72
2023-05-22T02:07:57.510Z,4.76
2023-05-22T02:13:04.795Z,4.58
2023-05-22T02:18:12.320Z,4.33
2023-05-22T02:23:19.478Z,4.55
2023-05-22T02:28:26.896Z,4.67
2023-05-22T02:33:34.304Z,4.47
2023-05-22T02:38:41.705Z,4.77
2023-05-22T02:43:48.982Z,4.33
2023-05-22T02:48:56.337Z,4.51
2023-05-22T02:54:03.628Z,4.79
2023-05-22T02:59:11.140Z,4.83
2023-05-22T03:04:18.391Z,5.27
2023-05-22T03:09:25.810Z,4.78
2023-05-22T03:14:33.167Z,4.43
2023-05-22T03:19:40.641Z,5.02
2023-05-22T03:24:47.882Z,4.41
2023-05-22T03:29:55.253Z,4.36
2023-05-22T03:35:02.623Z,4.56
2023-05-22T03:40:10.100Z,4.49
2023-05-22T03:45:17.532Z,4.45
2023-05-22T03:50:24.920Z,4.57
2023-05-22T03:55:32.164Z,4.33
2023-05-22T04:00:39.746Z,4.02
2023-05-22T04:05:46.814Z,4.20
2023-05-22T04:10:54.167Z,4.34
2023-05-22T04:16:01.507Z,4.13
2023-05-22T04:21:08.885Z,4.92
2023-05-22T04:26:16.193Z,4.38
2023-05-22T04:31:23.696Z,4.33
2023-05-22T04:36:31.034Z,4.47
2023-05-22T04:41:38.483Z,4.37
2023-05-22T04:46:45.860Z,4.54
2023-05-22T04:51:53.134Z,5.06
2023-05-22T04:57:00.376Z,4.73
2023-05-22T05:02:07.781Z,4.55
2023-05-22T05:07:15.082Z,4.47
2023-05-22T05:12:22.416Z,4.65
2023-05-22T05:17:29.722Z,4.67
2023-05-22T05:22:37.102Z,4.57
2023-05-22T05:27:44.441Z,4.31
2023-05-22T05:32:51.835Z,4.66
2023-05-22T05:37:58.993Z,4.48
2023-05-22T05:43:08.009Z,4.53
2023-05-22T05:48:13.210Z,4.14
2023-05-22T05:53:20.740Z,4.82
2023-05-22T05:58:28.070Z,4.28
2023-05-22T06:03:35.611Z,4.62
2023-05-22T06:08:42.598Z,4.68
2023-05-22T06:13:49.944Z,4.85
2023-05-22T06:18:57.410Z,5.04
2023-05-22T06:24:04.683Z,4.39
2023-05-22T06:29:11.931Z,4.34
2023-05-22T06:34:19.548Z,4.03
2023-05-22T06:39:26.628Z,4.09
2023-05-22T06:44:34.037Z,4.07
2023-05-22T06:49:41.395Z,4.08
2023-05-22T06:54:49.116Z,4.60
2023-05-22T06:59:56.425Z,4.29
2023-05-22T07:05:03.977Z,4.10
2023-05-22T07:10:11.230Z,3.98
2023-05-22T07:15:18.542Z,4.17
2023-05-22T07:20:25.803Z,4.12
2023-05-22T07:25:34.270Z,4.08
2023-05-22T07:30:41.676Z,4.24
2023-05-22T07:35:49.138Z,4.14
2023-05-22T07:40:56.368Z,4.15
2023-05-22T07:46:04.176Z,4.10
2023-05-22T07:51:11.348Z,3.61
2023-05-22T07:56:19.174Z,3.76
2023-05-22T08:01:26.620Z,3.54
2023-05-22T08:06:34.329Z,3.75
2023-05-22T08:11:41.580Z,3.77
2023-05-22T08:16:48.940Z,3.81
2023-05-22T08:21:56.223Z,4.49
2023-05-22T08:27:03.897Z,3.80
2023-05-22T08:32:11.115Z,3.70
2023-05-22T08:37:18.473Z,3.75
2023-05-22T08:42:25.960Z,3.56
2023-05-22T08:47:33.710Z,3.85
2023-05-22T08:52:40.967Z,3.86
2023-05-22T08:57:48.304Z,3.58
2023-05-22T09:02:55.622Z,3.78
2023-05-22T09:08:16.054Z,3.52
2023-05-22T09:13:09.932Z,3.57
2023-05-22T09:18:17.280Z,3.17
2023-05-22T09:23:24.499Z,2.89
2023-05-22T09:28:32.014Z,2.39
2023-05-22T09:33:39.541Z,2.69
2023-05-22T09:38:46.965Z,2.77
2023-05-22T09:43:54.138Z,2.32
2023-05-22T09:49:01.692Z,2.15
2023-05-22T09:54:08.919Z,1.96
2023-05-22T09:59:16.292Z,1.96
2023-05-22T10:04:23.616Z,2.05
2023-05-22T10:09:31.262Z,2.15
2023-05-22T10:14:37.808Z,2.15
2023-05-22T10:19:46.815Z,2.00
2023-05-22T10:24:52.155Z,1.82
2023-05-22T10:29:59.548Z,1.89
2023-05-22T10:35:06.778Z,1.92
2023-05-22T10:40:14.113Z,1.83
2023-05-22T10:45:21.362Z,2.16
2023-05-22T10:50:28.903Z,2.22
2023-05-22T10:55:36.106Z,2.21
2023-05-22T11:00:43.625Z,2.18
2023-05-22T11:05:50.832Z,2.02
2023-05-22T11:10:58.175Z,1.94
2023-05-22T11:16:05.464Z,2.10
2023-05-22T11:21:12.873Z,2.09
2023-05-22T11:26:20.203Z,1.93
2023-05-22T11:31:27.651Z,2.22
2023-05-22T11:36:34.934Z,1.95
2023-05-22T11:41:42.358Z,2.22
2023-05-22T11:46:49.709Z,1.92
2023-05-22T11:51:56.961Z,1.97
2023-05-22T11:57:04.193Z,1.94
2023-05-22T12:02:11.566Z,2.07
2023-05-22T12:07:18.790Z,2.04
2023-05-22T12:12:26.323Z,2.20
2023-05-22T12:17:33.726Z,1.99
2023-05-22T12:22:41.159Z,2.05
2023-05-22T12:27:48.352Z,2.28
2023-05-22T12:32:55.745Z,2.05
2023-05-22T12:38:02.947Z,2.01
2023-05-22T12:48:14.835Z,2.45
2023-05-22T12:58:26.599Z,2.34
2023-05-22T13:03:33.940Z,2.68
2023-05-22T13:08:41.272Z,2.93
2023-05-22T13:13:48.727Z,3.04
2023-05-22T13:18:56.095Z,2.98
2023-05-22T13:24:13.174Z,2.91
2023-05-22T13:29:10.481Z,2.89
2023-05-22T13:34:18.097Z,3.04
2023-05-22T13:39:25.200Z,3.07
2023-05-22T13:44:32.510Z,3.11
2023-05-22T13:49:39.717Z,3.36
2023-05-22T13:54:47.020Z,3.78
2023-05-22T13:59:54.344Z,4.19
2023-05-22T14:05:01.758Z,3.89
2023-05-22T14:10:09.004Z,4.14
2023-05-22T14:15:16.373Z,4.12
2023-05-22T14:20:23.668Z,4.11
2023-05-22T14:25:31.038Z,4.22
2023-05-22T14:30:38.403Z,3.80
2023-05-22T14:35:45.821Z,3.99
2023-05-22T14:40:53.044Z,4.05
2023-05-22T14:46:00.638Z,4.02
2023-05-22T14:51:07.871Z,4.87
2023-05-22T14:56:15.373Z,4.05
2023-05-22T15:01:22.753Z,4.04
2023-05-22T15:06:30.141Z,3.81
2023-05-22T15:11:37.374Z,3.91
2023-05-22T15:16:44.856Z,3.94
2023-05-22T15:21:53.236Z,3.92
2023-05-22T15:27:00.575Z,3.74
2023-05-22T15:32:07.893Z,3.97
2023-05-22T15:37:15.118Z,3.70
2023-05-22T15:42:22.315Z,3.86
2023-05-22T15:47:29.724Z,3.58
2023-05-22T15:52:37.007Z,3.65
2023-05-22T15:57:44.502Z,3.58
2023-05-22T16:02:51.788Z,3.88
2023-05-22T16:07:59.115Z,3.63
2023-05-22T16:13:06.376Z,3.99
2023-05-22T16:18:13.689Z,3.80
2023-05-22T16:23:21.066Z,4.39
2023-05-22T16:28:28.586Z,4.15
2023-05-22T16:33:35.902Z,4.12
2023-05-22T16:38:43.255Z,3.64
2023-05-22T16:43:51.246Z,4.22
2023-05-22T16:48:58.709Z,3.90
2023-05-22T16:54:06.011Z,3.78
2023-05-22T16:59:13.528Z,4.06
2023-05-22T17:04:20.305Z,3.90
2023-05-22T17:09:27.737Z,5.65
2023-05-22T17:14:34.978Z,4.17
2023-05-22T17:19:42.456Z,3.94
2023-05-22T17:24:49.707Z,4.19
2023-05-22T17:29:57.187Z,4.41
2023-05-22T17:35:04.426Z,4.19
2023-05-22T17:40:11.798Z,3.83
2023-05-22T17:45:19.087Z,4.26
2023-05-22T17:50:26.521Z,4.50
2023-05-22T17:55:33.737Z,4.42
2023-05-22T18:00:41.422Z,4.42
2023-05-22T18:05:48.583Z,4.14
2023-05-22T18:10:56.110Z,4.41
2023-05-22T18:16:03.378Z,4.58
2023-05-22T18:21:10.609Z,4.30
2023-05-22T18:26:17.856Z,4.81
2023-05-22T18:31:25.224Z,4.74
2023-05-22T18:41:37.067Z,4.42
2023-05-22T18:46:44.418Z,4.42
2023-05-22T18:51:51.895Z,4.73
2023-05-22T18:56:59.277Z,5.11
2023-05-22T19:02:06.825Z,4.83
2023-05-22T19:07:14.227Z,5.12
2023-05-22T19:12:21.615Z,5.59
2023-05-22T19:17:29.186Z,5.21
2023-05-22T19:22:36.698Z,6.12
2023-05-22T19:27:44.076Z,5.62
2023-05-22T19:32:51.478Z,5.77
2023-05-22T19:37:58.689Z,5.84
2023-05-22T19:43:06.133Z,5.87
2023-05-22T19:48:13.360Z,5.90
2023-05-22T19:53:20.751Z,6.14
2023-05-22T19:58:27.968Z,5.87
2023-05-22T20:03:35.540Z,6.76
2023-05-22T20:08:42.735Z,6.70
2023-05-22T20:18:54.613Z,6.69
2023-05-22T20:24:02.125Z,6.75
2023-05-22T20:29:09.430Z,7.19
2023-05-22T20:34:16.961Z,7.29
2023-05-22T20:39:24.297Z,7.25
2023-05-22T20:44:31.744Z,7.49
2023-05-22T20:49:38.947Z,7.34
2023-05-22T20:54:46.337Z,8.19
2023-05-22T20:59:53.603Z,8.51
2023-05-22T21:05:01.030Z,8.86
2023-05-22T21:10:08.304Z,8.15
2023-05-22T21:15:15.641Z,8.44
2023-05-22T21:20:22.895Z,8.43
2023-05-22T21:25:30.337Z,8.67
2023-05-22T21:30:37.609Z,9.09
2023-05-22T21:35:44.916Z,9.14
2023-05-22T21:40:52.233Z,9.16
2023-05-22T21:45:59.632Z,8.77
2023-05-22T21:51:06.880Z,9.81
2023-05-22T21:56:14.386Z,10.07
2023-05-22T22:01:21.628Z,10.01
2023-05-22T22:06:29.056Z,9.70
2023-05-22T22:11:36.396Z,9.81
2023-05-22T22:16:43.798Z,9.90
2023-05-22T22:21:51.060Z,9.91
2023-05-22T22:26:58.371Z,11.57
2023-05-22T22:32:05.720Z,10.82
2023-05-22T22:37:13.098Z,11.34
2023-05-22T22:42:20.310Z,12.28
2023-05-22T22:47:27.650Z,11.22
2023-05-22T22:52:34.895Z,11.49
2023-05-22T22:57:42.331Z,11.35
2023-05-22T23:02:49.673Z,12.10
2023-05-22T23:07:57.410Z,12.09
2023-05-22T23:13:04.741Z,12.85
2023-05-22T23:18:12.213Z,12.09
2023-05-22T23:23:19.349Z,13.07
2023-05-22T23:28:27.132Z,12.16
2023-05-22T23:33:34.484Z,12.55
2023-05-22T23:38:41.982Z,12.20
2023-05-22T23:43:49.285Z,11.87
2023-05-22T23:48:56.902Z,13.28
2023-05-22T23:54:04.256Z,11.84
2023-05-22T23:59:11.746Z,13.41
